createdAt,value
2019-03-26T00:00:08.098Z,2.67
2019-03-26T00:02:37.609Z,2.63
2019-03-26T00:05:07.119Z,2.58
2019-03-26T00:07:36.602Z,2.57
2019-03-26T00:10:06.090Z,2.54
2019-03-26T00:12:35.531Z,2.53
2019-03-26T00:15:06.312Z,2.55
2019-03-26T00:17:35.721Z,2.53
2019-03-26T00:20:06.234Z,2.51
2019-03-26T00:22:35.639Z,2.48
2019-03-26T00:25:06.214Z,2.47
2019-03-26T00:27:35.623Z,2.45
2019-03-26T00:30:05.596Z,2.44
2019-03-26T00:32:35.010Z,2.39
2019-03-26T00:35:04.716Z,2.29
2019-03-26T00:37:34.135Z,2.28
2019-03-26T00:40:04.044Z,2.27
2019-03-26T00:42:33.454Z,2.29
2019-03-26T00:45:02.895Z,2.30
2019-03-26T00:47:32.304Z,2.36
2019-03-26T00:50:01.754Z,2.40
2019-03-26T00:52:31.165Z,2.32
2019-03-26T00:55:00.615Z,2.33
2019-03-26T00:57:30.034Z,2.27
2019-03-26T00:59:59.485Z,2.23
2019-03-26T01:02:28.897Z,2.27
2019-03-26T01:04:58.343Z,2.20
2019-03-26T01:07:27.751Z,2.16
2019-03-26T01:09:57.196Z,2.23
2019-03-26T01:12:26.608Z,2.26
2019-03-26T01:14:56.048Z,2.24
2019-03-26T01:17:25.459Z,2.18
2019-03-26T01:19:54.891Z,2.24
2019-03-26T01:22:24.308Z,2.28
2019-03-26T01:24:53.743Z,2.28
2019-03-26T01:27:23.179Z,2.31
2019-03-26T01:29:52.612Z,2.33
2019-03-26T01:32:22.029Z,2.38
2019-03-26T01:34:51.772Z,2.41
2019-03-26T01:37:21.182Z,2.43
2019-03-26T01:39:50.621Z,2.49
2019-03-26T01:42:20.524Z,2.49
2019-03-26T01:44:49.966Z,2.56
2019-03-26T01:47:19.377Z,2.54
2019-03-26T01:49:48.830Z,2.59
2019-03-26T01:52:18.234Z,2.58
2019-03-26T01:54:47.684Z,2.59
2019-03-26T01:57:17.641Z,2.60
2019-03-26T01:59:47.100Z,2.58
2019-03-26T02:02:16.523Z,2.54
2019-03-26T02:04:58.866Z,2.52
2019-03-26T02:07:17.651Z,2.48
2019-03-26T02:09:47.093Z,2.43
2019-03-26T02:12:16.502Z,2.50
2019-03-26T02:14:45.956Z,2.51
2019-03-26T02:17:15.373Z,2.38
2019-03-26T02:19:44.810Z,2.30
2019-03-26T02:22:14.223Z,2.04
2019-03-26T02:24:43.673Z,2.04
2019-03-26T02:27:13.077Z,2.03
2019-03-26T02:29:42.502Z,2.04
2019-03-26T02:32:11.912Z,2.13
2019-03-26T02:34:41.351Z,2.14
2019-03-26T02:37:10.796Z,2.06
2019-03-26T02:39:40.199Z,2.11
2019-03-26T02:42:09.631Z,2.17
2019-03-26T02:44:39.034Z,2.29
2019-03-26T02:47:08.466Z,2.28
2019-03-26T02:49:37.870Z,2.29
2019-03-26T02:52:07.313Z,2.41
2019-03-26T02:54:36.751Z,2.47
2019-03-26T02:57:06.196Z,2.57
2019-03-26T02:59:35.599Z,2.60
2019-03-26T03:02:05.051Z,2.56
2019-03-26T03:04:34.467Z,2.56
2019-03-26T03:07:03.919Z,2.57
2019-03-26T03:09:33.330Z,2.48
2019-03-26T03:12:02.767Z,2.38
2019-03-26T03:14:32.172Z,2.39
2019-03-26T03:17:01.604Z,2.44
2019-03-26T03:19:31.030Z,2.35
2019-03-26T03:22:00.457Z,2.34
2019-03-26T03:24:29.858Z,2.33
2019-03-26T03:26:59.301Z,2.32
2019-03-26T03:29:28.705Z,2.29
2019-03-26T03:31:58.141Z,2.31
2019-03-26T03:34:27.556Z,2.31
2019-03-26T03:36:56.984Z,2.32
2019-03-26T03:39:26.385Z,2.27
2019-03-26T03:41:55.820Z,2.31
2019-03-26T03:44:25.233Z,2.33
2019-03-26T03:46:54.676Z,2.35
2019-03-26T03:49:24.102Z,2.30
2019-03-26T03:51:53.588Z,2.20
2019-03-26T03:54:23.017Z,2.16
2019-03-26T03:56:53.305Z,2.12
2019-03-26T03:59:22.708Z,2.18
2019-03-26T04:01:52.146Z,2.15
2019-03-26T04:04:21.553Z,2.09
2019-03-26T04:06:50.989Z,2.11
2019-03-26T04:09:20.601Z,2.13
2019-03-26T04:11:50.028Z,2.06
2019-03-26T04:14:19.447Z,2.06
2019-03-26T04:16:48.904Z,1.98
2019-03-26T04:19:18.322Z,2.03
2019-03-26T04:21:47.759Z,2.04
2019-03-26T04:24:17.589Z,2.03
2019-03-26T04:26:47.031Z,2.00
2019-03-26T04:29:16.460Z,2.11
2019-03-26T04:31:45.896Z,2.13
2019-03-26T04:34:15.315Z,2.16
2019-03-26T04:36:44.753Z,2.18
2019-03-26T04:39:14.163Z,2.18
2019-03-26T04:41:43.624Z,2.19
2019-03-26T04:44:13.072Z,2.20
2019-03-26T04:46:45.256Z,2.23
2019-03-26T04:49:15.012Z,2.27
2019-03-26T04:51:44.427Z,2.31
2019-03-26T04:54:13.871Z,2.35
2019-03-26T04:56:43.320Z,2.41
2019-03-26T04:59:12.791Z,2.42
2019-03-26T05:01:42.209Z,2.45
2019-03-26T05:04:11.852Z,2.45
2019-03-26T05:06:41.248Z,2.48
2019-03-26T05:09:10.684Z,2.53
2019-03-26T05:11:40.180Z,2.59
2019-03-26T05:14:09.614Z,2.59
2019-03-26T05:16:39.027Z,2.54
2019-03-26T05:19:08.463Z,2.52
2019-03-26T05:21:37.876Z,2.57
2019-03-26T05:24:07.316Z,2.59
2019-03-26T05:26:36.727Z,2.66
2019-03-26T05:29:06.169Z,2.62
2019-03-26T05:31:35.585Z,2.61
2019-03-26T05:34:05.030Z,2.69
2019-03-26T05:36:34.450Z,2.71
2019-03-26T05:39:05.165Z,2.73
2019-03-26T05:41:34.724Z,2.80
2019-03-26T05:44:04.169Z,2.90
2019-03-26T05:46:33.584Z,2.93
2019-03-26T05:49:03.050Z,2.93
2019-03-26T05:51:32.532Z,2.98
2019-03-26T05:54:01.996Z,2.99
2019-03-26T05:56:32.370Z,3.04
2019-03-26T05:59:02.025Z,3.15
2019-03-26T06:01:31.440Z,3.25
2019-03-26T06:04:00.888Z,3.25
2019-03-26T06:06:30.300Z,3.21
2019-03-26T06:08:59.747Z,3.19
2019-03-26T06:11:29.170Z,3.14
2019-03-26T06:13:58.623Z,3.10
2019-03-26T06:16:37.928Z,3.11
2019-03-26T06:18:59.235Z,3.15
2019-03-26T06:21:28.674Z,3.14
2019-03-26T06:23:58.135Z,3.16
2019-03-26T06:26:27.543Z,3.20
2019-03-26T06:28:56.997Z,3.24
2019-03-26T06:31:26.407Z,3.31
2019-03-26T06:33:55.843Z,3.35
2019-03-26T06:36:25.763Z,3.39
2019-03-26T06:38:55.288Z,3.30
2019-03-26T06:41:24.704Z,3.26
2019-03-26T06:43:54.173Z,3.30
2019-03-26T06:46:23.583Z,3.27
2019-03-26T06:48:53.032Z,3.41
2019-03-26T06:51:25.190Z,3.45
2019-03-26T06:53:55.595Z,3.50
2019-03-26T06:56:25.037Z,3.56
2019-03-26T06:58:54.475Z,3.60
2019-03-26T07:01:23.972Z,3.72
2019-03-26T07:03:53.432Z,3.81
2019-03-26T07:06:23.153Z,3.96
2019-03-26T07:08:52.601Z,3.99
2019-03-26T07:11:22.334Z,4.09
2019-03-26T07:13:51.743Z,4.08
2019-03-26T07:16:21.190Z,4.06
2019-03-26T07:18:50.606Z,4.35
2019-03-26T07:21:20.051Z,4.68
2019-03-26T07:23:49.463Z,4.60
2019-03-26T07:26:19.656Z,4.69
2019-03-26T07:28:49.066Z,4.95
2019-03-26T07:31:18.511Z,5.03
2019-03-26T07:33:47.918Z,4.78
2019-03-26T07:36:17.733Z,4.79
2019-03-26T07:38:47.147Z,4.86
2019-03-26T07:41:16.614Z,4.79
2019-03-26T07:43:46.024Z,4.75
2019-03-26T07:46:15.479Z,4.74
2019-03-26T07:48:44.888Z,4.70
2019-03-26T07:51:15.274Z,4.81
2019-03-26T07:53:44.684Z,4.78
2019-03-26T07:56:14.124Z,4.85
2019-03-26T07:58:43.534Z,4.92
2019-03-26T08:01:12.978Z,4.94
2019-03-26T08:03:42.390Z,4.93
2019-03-26T08:06:11.823Z,5.02
2019-03-26T08:08:41.237Z,5.02
2019-03-26T08:11:10.677Z,5.03
2019-03-26T08:13:41.089Z,5.18
2019-03-26T08:16:10.633Z,5.22
2019-03-26T08:18:40.036Z,5.30
2019-03-26T08:21:09.477Z,5.14
2019-03-26T08:23:38.896Z,5.35
2019-03-26T08:26:08.343Z,5.18
2019-03-26T08:28:37.753Z,5.32
2019-03-26T08:31:07.206Z,5.13
2019-03-26T08:33:36.628Z,5.06
2019-03-26T08:36:06.071Z,5.05
2019-03-26T08:38:35.484Z,5.09
2019-03-26T08:41:05.105Z,5.17
2019-03-26T08:43:34.520Z,5.18
2019-03-26T08:46:03.976Z,5.12
2019-03-26T08:48:33.387Z,5.10
2019-03-26T08:51:04.022Z,5.21
2019-03-26T08:53:33.446Z,5.19
2019-03-26T08:56:02.908Z,5.13
2019-03-26T08:58:32.315Z,5.19
2019-03-26T09:01:01.760Z,5.11
2019-03-26T09:03:32.284Z,5.16
2019-03-26T09:06:01.734Z,5.15
2019-03-26T09:08:31.155Z,5.16
2019-03-26T09:11:03.032Z,5.21
2019-03-26T09:13:32.437Z,5.34
2019-03-26T09:16:02.713Z,5.34
2019-03-26T09:18:32.157Z,5.37
2019-03-26T09:21:01.595Z,5.21
2019-03-26T09:23:31.034Z,5.25
2019-03-26T09:26:00.438Z,5.09
2019-03-26T09:28:31.283Z,4.94
2019-03-26T09:31:00.940Z,4.88
2019-03-26T09:33:30.391Z,4.67
2019-03-26T09:35:59.805Z,4.63
2019-03-26T09:38:38.931Z,4.50
2019-03-26T09:41:00.350Z,4.46
2019-03-26T09:43:29.796Z,4.40
2019-03-26T09:45:59.270Z,4.55
2019-03-26T09:48:28.724Z,4.59
2019-03-26T09:50:58.139Z,4.67
2019-03-26T09:53:27.594Z,4.75
2019-03-26T09:55:56.998Z,4.85
2019-03-26T09:58:26.451Z,4.83
2019-03-26T10:00:56.331Z,4.88
2019-03-26T10:03:25.793Z,5.07
2019-03-26T10:05:55.287Z,5.16
2019-03-26T10:08:25.159Z,5.30
2019-03-26T10:10:54.611Z,5.37
2019-03-26T10:13:24.399Z,5.42
2019-03-26T10:15:53.811Z,5.48
2019-03-26T10:18:24.438Z,5.52
2019-03-26T10:20:53.855Z,5.62
2019-03-26T10:23:23.289Z,5.69
2019-03-26T10:25:52.716Z,5.62
2019-03-26T10:28:22.630Z,5.51
2019-03-26T10:30:52.271Z,5.36
2019-03-26T10:33:21.708Z,5.25
2019-03-26T10:35:51.125Z,5.31
2019-03-26T10:38:20.577Z,5.33
2019-03-26T10:40:49.975Z,5.31
2019-03-26T10:43:19.414Z,5.39
2019-03-26T10:45:48.823Z,5.46
2019-03-26T10:48:18.298Z,5.41
2019-03-26T10:50:47.730Z,5.53
2019-03-26T10:53:18.599Z,5.58
2019-03-26T10:55:48.009Z,5.73
2019-03-26T10:58:17.506Z,5.98
2019-03-26T11:00:46.919Z,6.07
2019-03-26T11:03:16.578Z,6.26
2019-03-26T11:05:45.997Z,6.42
2019-03-26T11:08:15.439Z,6.38
2019-03-26T11:10:44.849Z,6.42
2019-03-26T11:13:16.175Z,6.28
2019-03-26T11:15:45.590Z,6.31
2019-03-26T11:18:15.040Z,6.36
2019-03-26T11:20:44.475Z,6.44
2019-03-26T11:23:13.914Z,6.79
2019-03-26T11:25:43.355Z,6.84
2019-03-26T11:28:12.767Z,7.07
2019-03-26T11:30:42.229Z,7.12
2019-03-26T11:33:11.644Z,7.09
2019-03-26T11:35:41.138Z,7.41
2019-03-26T11:38:10.548Z,7.31
2019-03-26T11:40:40.008Z,7.18
2019-03-26T11:43:12.143Z,6.96
2019-03-26T11:45:41.584Z,6.79
2019-03-26T11:48:11.002Z,6.87
2019-03-26T11:50:40.484Z,7.04
2019-03-26T11:53:10.003Z,7.17
2019-03-26T11:55:39.656Z,7.38
2019-03-26T11:58:09.067Z,7.83
2019-03-26T12:00:39.353Z,8.52
2019-03-26T12:03:08.877Z,8.62
2019-03-26T12:05:38.329Z,8.75
2019-03-26T12:08:07.866Z,8.88
2019-03-26T12:10:38.792Z,9.03
2019-03-26T12:13:08.210Z,9.05
2019-03-26T12:15:37.651Z,10.18
2019-03-26T12:18:07.077Z,9.86
2019-03-26T12:20:36.494Z,9.39
2019-03-26T12:23:05.901Z,9.01
2019-03-26T12:25:35.447Z,8.52
2019-03-26T12:28:05.200Z,8.25
2019-03-26T12:30:35.978Z,8.23
2019-03-26T12:33:05.617Z,8.40
2019-03-26T12:35:35.343Z,8.50
2019-03-26T12:38:08.308Z,8.51
2019-03-26T12:40:37.762Z,8.45
2019-03-26T12:43:07.228Z,8.31
2019-03-26T12:45:36.565Z,8.14
2019-03-26T12:48:05.976Z,8.08
2019-03-26T12:50:35.416Z,7.93
2019-03-26T12:53:04.818Z,7.80
2019-03-26T12:55:34.272Z,7.63
2019-03-26T12:58:03.692Z,7.92
2019-03-26T13:00:33.570Z,8.86
2019-03-26T13:03:03.071Z,8.53
2019-03-26T13:05:32.619Z,8.16
2019-03-26T13:08:02.023Z,8.75
2019-03-26T13:10:31.884Z,8.69
2019-03-26T13:13:01.291Z,8.44
2019-03-26T13:15:30.819Z,8.51
2019-03-26T13:18:00.225Z,9.05
2019-03-26T13:20:29.668Z,9.34
2019-03-26T13:22:59.074Z,9.66
2019-03-26T13:25:29.072Z,10.07
2019-03-26T13:27:58.477Z,9.45
2019-03-26T13:30:27.911Z,8.93
2019-03-26T13:32:57.349Z,8.88
2019-03-26T13:35:26.762Z,8.78
2019-03-26T13:37:56.358Z,9.35
2019-03-26T13:40:27.559Z,9.17
2019-03-26T13:42:57.100Z,8.61
2019-03-26T13:45:26.514Z,8.32
2019-03-26T13:47:55.963Z,8.02
2019-03-26T13:50:25.362Z,7.81
2019-03-26T13:52:54.809Z,7.66
2019-03-26T13:55:24.267Z,7.73
2019-03-26T13:57:53.774Z,7.78
2019-03-26T14:00:26.432Z,7.79
2019-03-26T14:02:55.876Z,7.92
2019-03-26T14:05:25.953Z,7.96
2019-03-26T14:07:55.388Z,7.80
2019-03-26T14:10:24.823Z,7.68
2019-03-26T14:12:54.270Z,7.64
2019-03-26T14:15:23.695Z,7.71
2019-03-26T14:17:53.147Z,7.57
2019-03-26T14:20:22.571Z,7.54
2019-03-26T14:22:52.007Z,7.52
2019-03-26T14:25:21.418Z,7.55
2019-03-26T14:27:50.846Z,7.60
2019-03-26T14:30:26.169Z,7.66
2019-03-26T14:32:55.608Z,7.63
2019-03-26T14:35:25.013Z,7.59
2019-03-26T14:37:54.447Z,7.60
2019-03-26T14:40:23.852Z,7.57
2019-03-26T14:42:53.309Z,7.45
2019-03-26T14:45:22.721Z,7.32
2019-03-26T14:47:52.160Z,7.24
2019-03-26T14:50:21.577Z,7.18
2019-03-26T14:52:51.017Z,7.14
2019-03-26T14:55:20.428Z,7.12
2019-03-26T14:57:49.882Z,7.25
2019-03-26T15:00:19.291Z,7.32
2019-03-26T15:02:48.728Z,7.37
2019-03-26T15:05:18.140Z,7.42
2019-03-26T15:07:47.579Z,7.46
2019-03-26T15:10:16.988Z,7.49
2019-03-26T15:12:46.424Z,7.35
2019-03-26T15:15:15.832Z,7.31
2019-03-26T15:17:45.268Z,7.23
2019-03-26T15:20:14.670Z,7.17
2019-03-26T15:22:44.111Z,7.12
2019-03-26T15:25:13.533Z,6.87
2019-03-26T15:27:42.967Z,6.67
2019-03-26T15:30:12.371Z,6.50
2019-03-26T15:32:41.812Z,6.41
2019-03-26T15:35:11.226Z,6.38
2019-03-26T15:37:40.669Z,6.32
2019-03-26T15:40:10.078Z,6.30
2019-03-26T15:42:39.537Z,6.26
2019-03-26T15:45:09.043Z,6.25
2019-03-26T15:47:38.489Z,6.25
2019-03-26T15:50:07.933Z,6.29
2019-03-26T15:52:37.349Z,6.32
2019-03-26T15:55:06.791Z,6.38
2019-03-26T15:57:36.214Z,6.43
2019-03-26T16:00:07.809Z,6.44
2019-03-26T16:02:37.213Z,6.58
2019-03-26T16:05:08.096Z,6.74
2019-03-26T16:07:37.505Z,6.86
2019-03-26T16:10:07.504Z,6.84
2019-03-26T16:12:41.290Z,6.82
2019-03-26T16:15:08.045Z,6.80
2019-03-26T16:17:37.462Z,6.81
2019-03-26T16:20:07.079Z,6.82
2019-03-26T16:22:36.485Z,6.84
2019-03-26T16:25:06.187Z,6.83
2019-03-26T16:27:35.598Z,6.81
2019-03-26T16:30:06.747Z,6.74
2019-03-26T16:32:36.167Z,6.76
2019-03-26T16:35:06.162Z,6.77
2019-03-26T16:37:35.577Z,6.73
2019-03-26T16:40:06.289Z,6.74
2019-03-26T16:42:35.706Z,6.74
2019-03-26T16:45:06.329Z,6.73
2019-03-26T16:47:36.065Z,6.77
2019-03-26T16:50:07.457Z,6.73
2019-03-26T16:52:36.875Z,6.73
2019-03-26T16:55:06.684Z,6.73
2019-03-26T16:57:36.982Z,6.72
2019-03-26T17:00:06.554Z,6.71
2019-03-26T17:02:36.082Z,6.71
2019-03-26T17:05:06.293Z,6.69
2019-03-26T17:07:36.073Z,6.66
2019-03-26T17:10:08.556Z,6.66
2019-03-26T17:12:37.967Z,6.64
2019-03-26T17:15:08.081Z,6.60
2019-03-26T17:17:37.496Z,6.59
2019-03-26T17:20:07.000Z,6.61
2019-03-26T17:22:36.413Z,6.64
2019-03-26T17:25:08.613Z,6.60
2019-03-26T17:27:38.032Z,6.61
2019-03-26T17:30:07.476Z,6.63
2019-03-26T17:32:36.891Z,6.59
2019-03-26T17:35:06.804Z,6.56
2019-03-26T17:37:36.215Z,6.53
2019-03-26T17:40:05.658Z,6.48
2019-03-26T17:42:35.066Z,6.53
2019-03-26T17:45:05.456Z,6.51
2019-03-26T17:47:34.880Z,6.57
2019-03-26T17:50:06.356Z,6.54
2019-03-26T17:52:36.074Z,6.56
2019-03-26T17:55:07.186Z,6.50
2019-03-26T17:57:36.604Z,6.51
2019-03-26T18:00:11.492Z,6.54
2019-03-26T18:02:40.968Z,6.53
2019-03-26T18:05:25.091Z,6.55
2019-03-26T18:07:54.512Z,6.55
2019-03-26T18:10:23.957Z,6.53
2019-03-26T18:12:53.384Z,6.51
2019-03-26T18:15:22.838Z,6.52
2019-03-26T18:17:52.252Z,6.53
2019-03-26T18:20:31.948Z,6.54
2019-03-26T18:22:52.790Z,6.53
2019-03-26T18:25:22.231Z,6.56
2019-03-26T18:27:51.653Z,6.57
2019-03-26T18:30:21.113Z,6.57
2019-03-26T18:32:50.548Z,6.57
2019-03-26T18:35:19.959Z,6.59
2019-03-26T18:37:49.417Z,6.59
2019-03-26T18:40:18.830Z,6.59
2019-03-26T18:42:48.288Z,6.64
2019-03-26T18:45:46.305Z,6.55
2019-03-26T18:48:19.802Z,6.30
2019-03-26T18:50:49.232Z,6.21
2019-03-26T18:53:18.676Z,6.07
2019-03-26T18:55:48.088Z,6.03
2019-03-26T18:58:17.533Z,5.94
2019-03-26T19:00:46.957Z,5.92
2019-03-26T19:03:16.398Z,5.93
2019-03-26T19:05:45.821Z,5.93
2019-03-26T19:08:15.265Z,5.93
2019-03-26T19:10:44.685Z,5.93
2019-03-26T19:13:19.792Z,5.97
2019-03-26T19:15:45.245Z,5.94
2019-03-26T19:18:14.692Z,5.89
2019-03-26T19:20:44.116Z,5.84
2019-03-26T19:23:13.553Z,5.81
2019-03-26T19:25:42.970Z,5.82
2019-03-26T19:28:12.421Z,5.87
2019-03-26T19:30:41.842Z,5.79
2019-03-26T19:33:11.281Z,5.80
2019-03-26T19:35:40.729Z,5.75
2019-03-26T19:38:10.176Z,5.71
2019-03-26T19:40:39.594Z,5.64
2019-03-26T19:43:11.103Z,5.61
2019-03-26T19:45:40.149Z,5.58
2019-03-26T19:48:09.588Z,5.63
2019-03-26T19:50:38.998Z,5.65
2019-03-26T19:53:08.441Z,5.70
2019-03-26T19:55:37.860Z,5.71
2019-03-26T19:58:07.296Z,5.73
2019-03-26T20:00:36.706Z,5.73
2019-03-26T20:03:06.147Z,5.83
2019-03-26T20:05:35.810Z,5.82
2019-03-26T20:08:05.296Z,5.82
2019-03-26T20:10:34.866Z,5.73
2019-03-26T20:13:04.322Z,5.78
2019-03-26T20:15:33.728Z,5.77
2019-03-26T20:18:03.166Z,5.76
2019-03-26T20:20:32.579Z,5.78
2019-03-26T20:23:02.348Z,5.75
2019-03-26T20:25:31.856Z,5.72
2019-03-26T20:28:01.376Z,5.56
2019-03-26T20:30:30.776Z,5.39
2019-03-26T20:33:00.220Z,5.27
2019-03-26T20:35:29.665Z,5.18
2019-03-26T20:37:59.341Z,5.15
2019-03-26T20:40:29.343Z,5.15
2019-03-26T20:42:58.752Z,5.12
2019-03-26T20:45:28.187Z,5.00
2019-03-26T20:47:57.600Z,4.97
2019-03-26T20:50:27.043Z,4.90
2019-03-26T20:52:56.461Z,4.85
2019-03-26T20:55:31.102Z,4.89
2019-03-26T20:58:00.587Z,4.88
2019-03-26T21:00:37.452Z,4.89
2019-03-26T21:03:06.937Z,4.84
2019-03-26T21:05:36.384Z,4.82
2019-03-26T21:08:06.085Z,4.72
2019-03-26T21:10:35.540Z,4.69
2019-03-26T21:13:04.955Z,4.69
2019-03-26T21:15:34.906Z,4.66
2019-03-26T21:18:04.328Z,4.60
2019-03-26T21:20:34.292Z,4.54
2019-03-26T21:23:03.713Z,4.56
2019-03-26T21:25:33.169Z,4.54
2019-03-26T21:28:03.532Z,4.46
2019-03-26T21:30:32.998Z,4.38
2019-03-26T21:33:02.476Z,4.32
2019-03-26T21:35:32.256Z,4.27
2019-03-26T21:38:01.671Z,4.10
2019-03-26T21:40:31.644Z,4.00
2019-03-26T21:43:01.207Z,3.92
2019-03-26T21:45:35.893Z,3.85
2019-03-26T21:48:05.945Z,3.78
2019-03-26T21:50:35.397Z,3.74
2019-03-26T21:53:04.821Z,3.65
2019-03-26T21:55:34.273Z,3.62
2019-03-26T21:58:03.700Z,3.59
2019-03-26T22:00:33.150Z,3.58
2019-03-26T22:03:02.566Z,3.53
2019-03-26T22:05:32.474Z,3.43
2019-03-26T22:08:01.891Z,3.35
2019-03-26T22:10:31.355Z,3.27
2019-03-26T22:13:00.968Z,3.19
2019-03-26T22:15:30.408Z,3.21
2019-03-26T22:17:59.823Z,3.21
2019-03-26T22:20:29.524Z,3.28
2019-03-26T22:22:58.982Z,3.26
2019-03-26T22:25:28.466Z,3.16
2019-03-26T22:27:57.881Z,3.11
2019-03-26T22:30:27.324Z,2.98
2019-03-26T22:32:56.737Z,2.90
2019-03-26T22:35:26.185Z,2.88
2019-03-26T22:37:55.601Z,2.81
2019-03-26T22:40:25.050Z,2.80
2019-03-26T22:42:54.463Z,2.80
2019-03-26T22:45:23.920Z,2.75
2019-03-26T22:47:53.332Z,2.70
2019-03-26T22:50:22.776Z,2.66
2019-03-26T22:52:52.196Z,2.62
2019-03-26T22:55:21.640Z,2.58
2019-03-26T22:57:51.069Z,2.49
2019-03-26T23:00:20.744Z,2.46
2019-03-26T23:02:50.189Z,2.40
2019-03-26T23:05:19.715Z,2.39
2019-03-26T23:07:49.147Z,2.33
2019-03-26T23:10:19.037Z,2.34
2019-03-26T23:12:48.481Z,2.26
2019-03-26T23:15:20.701Z,2.24
2019-03-26T23:17:50.141Z,2.24
2019-03-26T23:20:19.552Z,2.13
2019-03-26T23:22:49.011Z,2.12
2019-03-26T23:25:18.429Z,2.14
2019-03-26T23:27:47.890Z,2.09
2019-03-26T23:30:17.305Z,2.05
2019-03-26T23:32:46.745Z,1.99
2019-03-26T23:35:16.160Z,1.92
2019-03-26T23:37:45.593Z,1.87
2019-03-26T23:40:15.014Z,1.83
2019-03-26T23:42:44.456Z,1.85
2019-03-26T23:45:13.875Z,1.79
2019-03-26T23:47:43.310Z,1.74
2019-03-26T23:50:12.723Z,1.83
2019-03-26T23:52:42.163Z,1.89
2019-03-26T23:55:11.576Z,1.94
2019-03-26T23:57:41.015Z,1.96
